Time;durP1;ratioP1;P1;durP2;ratioP2;P2;SDS_P1;SDS_P2;PMS_P1;PMS_P2;Temp;Humidity;BMP_temperature;BMP_pressure;BME280_temperature;BME280_humidity;BME280_pressure;Samples;Min_cycle;Max_cycle;Signal;HPM_P1;HPM_P2
2023/06/20 00:01:40;;;;;;;17.77;10.80;;;;;;;18.91;67.59;100203.13;4232753;28;20235;-71
2023/06/20 00:04:07;;;;;;;17.37;11.40;;;;;;;18.89;67.75;100199.75;4235135;28;20266;-73
2023/06/20 00:06:33;;;;;;;18.33;11.40;;;;;;;18.79;68.03;100197.41;4228778;28;20256;-71
2023/06/20 00:09:00;;;;;;;20.73;11.67;;;;;;;18.66;68.87;100199.06;4241942;28;20239;-72
2023/06/20 00:11:27;;;;;;;21.83;11.50;;;;;;;18.59;69.38;100200.94;4242916;28;20266;-72
2023/06/20 00:13:53;;;;;;;16.67;10.53;;;;;;;18.55;69.52;100198.81;4234333;28;20703;-77
2023/06/20 00:16:20;;;;;;;17.57;11.27;;;;;;;18.50;69.90;100192.09;4243984;28;20236;-74
2023/06/20 00:18:54;;;;;;;15.43;10.00;;;;;;;18.41;70.13;100203.41;4248188;28;20235;-71
2023/06/20 00:21:25;;;;;;;14.50;9.87;;;;;;;18.35;70.26;100205.94;4234170;28;20864;-73
2023/06/20 00:23:54;;;;;;;15.67;9.80;;;;;;;18.32;70.49;100202.75;4241121;28;20361;-72
2023/06/20 00:26:21;;;;;;;17.00;10.53;;;;;;;18.31;70.43;100199.19;4238203;28;20239;-73
2023/06/20 00:28:51;;;;;;;16.53;10.80;;;;;;;18.24;70.86;100206.50;4240386;28;21154;-76
2023/06/20 00:31:17;;;;;;;17.37;9.83;;;;;;;18.14;71.10;100201.41;4220072;28;20725;-72
2023/06/20 00:33:44;;;;;;;17.90;10.80;;;;;;;18.13;71.47;100207.09;4224476;28;25763;-75
2023/06/20 00:36:11;;;;;;;18.80;9.70;;;;;;;18.10;71.41;100204.75;4254138;28;23071;-72
2023/06/20 00:38:38;;;;;;;16.20;10.63;;;;;;;18.11;71.37;100203.69;4225797;28;22078;-72
2023/06/20 00:41:04;;;;;;;17.43;10.53;;;;;;;18.08;71.66;100204.94;4241225;28;20235;-73
2023/06/20 00:43:31;;;;;;;15.40;9.80;;;;;;;18.01;72.00;100210.38;4199017;28;21437;-74
2023/06/20 00:45:58;;;;;;;19.43;10.90;;;;;;;18.00;72.21;100214.19;4222855;28;20227;-77
2023/06/20 00:48:27;;;;;;;18.03;11.17;;;;;;;17.97;72.28;100208.28;4245656;28;20231;-74
2023/06/20 00:50:54;;;;;;;17.87;10.80;;;;;;;17.88;72.54;100216.63;4221442;28;20230;-77
2023/06/20 00:53:21;;;;;;;17.63;11.57;;;;;;;17.87;72.59;100214.06;4233234;28;23391;-73
2023/06/20 00:55:48;;;;;;;18.17;11.73;;;;;;;17.96;72.79;100220.28;4219912;28;20338;-75
2023/06/20 00:58:15;;;;;;;15.17;10.90;;;;;;;17.91;72.98;100212.63;4237119;28;20268;-73
2023/06/20 01:00:41;;;;;;;21.07;11.43;;;;;;;17.90;72.88;100205.44;4268519;28;20595;-73
2023/06/20 01:03:11;;;;;;;17.27;10.90;;;;;;;17.82;73.18;100216.56;4211953;28;23033;-70
2023/06/20 01:05:40;;;;;;;19.57;10.73;;;;;;;17.82;73.24;100216.56;4219202;28;21732;-74
2023/06/20 01:08:22;;;;;;;18.00;11.37;;;;;;;17.81;73.35;100217.59;4231735;28;20297;-71
2023/06/20 01:11:09;;;;;;;22.77;11.40;;;;;;;17.81;73.36;100217.59;4231866;28;20242;-74
2023/06/20 01:14:03;;;;;;;21.60;11.80;;;;;;;17.64;74.29;100222.56;4221813;28;20247;-75
2023/06/20 01:16:38;;;;;;;17.00;11.90;;;;;;;17.61;74.32;100215.59;4235179;28;20260;-73
2023/06/20 01:19:23;;;;;;;18.57;11.93;;;;;;;17.61;74.29;100210.13;4218134;28;20804;-75
2023/06/20 01:21:59;;;;;;;18.83;10.67;;;;;;;17.58;74.41;100218.72;4224491;28;20585;-73
2023/06/20 01:24:35;;;;;;;19.00;11.77;;;;;;;17.58;74.53;100213.22;4234971;28;21579;-74
2023/06/20 01:27:15;;;;;;;19.13;11.57;;;;;;;17.53;74.65;100210.25;4222426;28;20529;-75
2023/06/20 01:30:08;;;;;;;19.93;10.97;;;;;;;17.44;75.69;100206.84;4217560;28;22359;-77
2023/06/20 01:32:44;;;;;;;15.20;10.03;;;;;;;17.39;75.36;100212.91;4226116;28;21784;-72
2023/06/20 01:35:15;;;;;;;18.13;11.53;;;;;;;17.31;75.85;100203.97;4223133;28;20256;-73
2023/06/20 01:37:43;;;;;;;15.60;10.07;;;;;;;17.24;76.09;100206.66;4196352;28;20588;-72
2023/06/20 01:40:11;;;;;;;19.23;11.97;;;;;;;17.23;76.38;100208.53;4215799;28;20266;-72
2023/06/20 01:42:38;;;;;;;19.70;12.23;;;;;;;17.29;76.41;100208.81;4249448;28;20240;-72
2023/06/20 01:45:05;;;;;;;19.00;11.50;;;;;;;17.20;76.53;100211.69;4221421;28;21679;-76
2023/06/20 01:47:35;;;;;;;17.03;11.63;;;;;;;17.14;76.83;100225.28;4207918;28;21616;-78
2023/06/20 01:50:03;;;;;;;18.80;11.90;;;;;;;17.12;76.98;100217.28;4231021;28;20263;-73
2023/06/20 01:52:30;;;;;;;18.60;10.90;;;;;;;17.09;77.12;100217.66;4222480;28;20301;-73
2023/06/20 01:54:59;;;;;;;23.20;12.50;;;;;;;17.08;77.36;100214.09;4207899;28;20228;-80
2023/06/20 01:57:26;;;;;;;20.63;12.77;;;;;;;17.06;77.54;100218.06;4222172;28;20247;-71
2023/06/20 01:59:53;;;;;;;18.60;12.23;;;;;;;16.99;77.76;100219.91;4229991;28;21147;-74
2023/06/20 02:02:20;;;;;;;18.77;12.30;;;;;;;16.99;77.95;100211.69;4228101;28;20243;-77
2023/06/20 02:04:48;;;;;;;17.73;11.73;;;;;;;16.93;78.08;100214.16;4234590;28;20355;-78
2023/06/20 02:07:15;;;;;;;17.03;12.50;;;;;;;16.91;78.18;100212.63;4242439;28;20533;-73
2023/06/20 02:09:44;;;;;;;27.03;13.50;;;;;;;16.87;78.44;100216.81;4216986;28;25776;-72
2023/06/20 02:12:12;;;;;;;20.50;11.93;;;;;;;16.87;78.49;100223.09;4214585;28;20232;-74
2023/06/20 02:14:39;;;;;;;21.73;12.40;;;;;;;16.87;78.51;100214.91;4235960;28;21124;-81
2023/06/20 02:17:07;;;;;;;20.17;12.30;;;;;;;16.81;78.89;100221.16;4233217;28;23610;-72
2023/06/20 02:19:33;;;;;;;24.87;13.03;;;;;;;16.82;78.87;100211.03;4230376;28;21738;-76
2023/06/20 02:22:01;;;;;;;16.97;12.30;;;;;;;16.78;79.01;100211.44;4236477;28;20228;-79
2023/06/20 02:24:31;;;;;;;18.03;12.57;;;;;;;16.77;79.22;100214.34;4238385;28;21896;-76
2023/06/20 02:27:00;;;;;;;17.87;11.80;;;;;;;16.79;79.09;100210.41;4201863;28;20234;-82
2023/06/20 02:29:30;;;;;;;16.97;12.03;;;;;;;16.78;79.06;100219.66;4207389;28;20298;-72
2023/06/20 02:31:58;;;;;;;16.67;12.03;;;;;;;16.78;79.13;100218.78;4216004;28;20361;-77
2023/06/20 02:34:26;;;;;;;14.70;11.40;;;;;;;16.68;79.55;100210.91;4215731;28;20239;-73
2023/06/20 02:36:55;;;;;;;16.33;12.20;;;;;;;16.72;79.61;100217.69;4213384;28;21568;-78
2023/06/20 02:39:24;;;;;;;13.83;11.07;;;;;;;16.71;79.60;100226.06;4234243;28;20855;-72
2023/06/20 02:41:50;;;;;;;15.63;10.90;;;;;;;16.70;79.46;100219.78;4245615;28;20226;-77
2023/06/20 02:44:17;;;;;;;18.13;11.70;;;;;;;16.72;79.58;100223.16;4241909;28;20255;-74
2023/06/20 02:46:56;;;;;;;19.23;12.30;;;;;;;16.75;79.40;100224.66;4254026;28;20484;-75
2023/06/20 02:49:59;;;;;;;20.00;12.37;;;;;;;16.76;79.42;100237.28;4259577;28;20309;-72
2023/06/20 02:52:35;;;;;;;16.40;11.33;;;;;;;16.74;79.22;100228.44;4252058;28;20261;-75
2023/06/20 02:55:11;;;;;;;18.70;12.70;;;;;;;16.72;79.41;100228.63;4260926;28;20737;-73
2023/06/20 02:57:39;;;;;;;17.20;11.93;;;;;;;16.79;79.01;100236.88;4254387;28;20342;-70
2023/06/20 03:00:09;;;;;;;16.77;12.63;;;;;;;16.79;79.19;100231.41;4232046;28;20355;-76
2023/06/20 03:02:58;;;;;;;17.30;12.33;;;;;;;16.84;79.19;100239.91;4243463;28;20278;-73
2023/06/20 03:05:27;;;;;;;18.50;12.87;;;;;;;16.89;78.93;100228.38;4234746;28;20644;-74
2023/06/20 03:07:54;;;;;;;18.77;13.50;;;;;;;16.93;78.78;100227.81;4264690;28;22817;-74
2023/06/20 03:10:21;;;;;;;17.93;12.77;;;;;;;16.98;78.45;100229.13;4203503;28;20232;-75
2023/06/20 03:12:48;;;;;;;19.83;13.57;;;;;;;17.16;77.85;100228.69;4229055;28;20421;-72
2023/06/20 03:15:15;;;;;;;21.33;12.97;;;;;;;17.26;77.28;100232.78;4231328;28;20595;-71
2023/06/20 03:17:41;;;;;;;20.27;12.67;;;;;;;17.25;77.74;100224.78;4212808;28;21884;-74
2023/06/20 03:20:09;;;;;;;20.63;13.17;;;;;;;17.22;77.66;100227.88;4237389;28;20231;-73
2023/06/20 03:22:36;;;;;;;17.63;11.97;;;;;;;17.28;77.50;100216.16;4217170;28;20637;-78
2023/06/20 03:25:03;;;;;;;19.57;12.83;;;;;;;17.38;77.15;100226.75;4232339;28;20235;-73
2023/06/20 03:27:30;;;;;;;17.70;12.70;;;;;;;17.38;77.23;100224.00;4234750;28;20231;-76
2023/06/20 03:30:00;;;;;;;19.73;12.40;;;;;;;17.39;77.11;100212.03;4232668;28;20227;-75
2023/06/20 03:32:26;;;;;;;18.07;12.20;;;;;;;17.48;76.96;100220.97;4242841;28;20232;-76
2023/06/20 03:34:53;;;;;;;18.10;11.97;;;;;;;17.58;76.75;100221.44;4225303;28;20338;-75
2023/06/20 03:37:20;;;;;;;21.13;14.47;;;;;;;17.60;76.00;100219.38;4234922;28;21242;-74
2023/06/20 03:39:46;;;;;;;25.00;14.47;;;;;;;17.57;76.07;100220.63;4235191;28;20589;-74
2023/06/20 03:42:13;;;;;;;22.70;14.30;;;;;;;17.59;76.23;100231.34;4241493;28;21716;-77
2023/06/20 03:44:39;;;;;;;26.93;15.27;;;;;;;17.69;76.07;100233.75;4231910;28;20239;-74
2023/06/20 03:47:06;;;;;;;18.50;13.37;;;;;;;17.85;75.85;100238.91;4238789;28;20397;-74
2023/06/20 03:49:33;;;;;;;22.63;12.83;;;;;;;18.05;75.13;100244.56;4228961;28;21191;-74
2023/06/20 03:52:01;;;;;;;19.93;12.37;;;;;;;18.27;74.46;100246.38;4231459;28;20235;-71
2023/06/20 03:54:27;;;;;;;15.97;12.63;;;;;;;18.46;74.18;100242.03;4234510;28;20247;-76
2023/06/20 03:56:54;;;;;;;18.13;13.27;;;;;;;18.75;71.95;100240.03;4229163;28;20239;-73
2023/06/20 03:59:21;;;;;;;18.90;13.23;;;;;;;18.92;71.69;100244.09;4228415;28;20710;-79
2023/06/20 04:01:47;;;;;;;22.93;13.40;;;;;;;18.99;71.03;100253.19;4215963;28;20227;-76
2023/06/20 04:04:14;;;;;;;18.10;12.33;;;;;;;19.09;71.09;100251.94;4238805;28;20611;-74
2023/06/20 04:06:40;;;;;;;19.87;11.80;;;;;;;19.27;70.53;100248.59;4213974;28;20703;-81
2023/06/20 04:09:07;;;;;;;15.60;11.73;;;;;;;19.36;69.58;100247.31;4230921;28;20312;-76
2023/06/20 04:11:33;;;;;;;21.77;14.67;;;;;;;19.52;68.85;100257.06;4233386;28;20587;-81
2023/06/20 04:14:00;;;;;;;19.57;12.47;;;;;;;19.70;68.56;100256.44;4210172;28;20235;-76
2023/06/20 04:16:27;;;;;;;15.57;11.43;;;;;;;19.93;67.85;100256.00;4240113;28;20267;-75
2023/06/20 04:18:53;;;;;;;21.63;12.77;;;;;;;20.05;65.98;100252.59;4243427;28;20238;-83
2023/06/20 04:21:20;;;;;;;15.77;12.00;;;;;;;20.12;66.04;100247.94;4249188;28;25533;-78
2023/06/20 04:23:46;;;;;;;19.00;13.23;;;;;;;20.35;65.52;100258.44;4223574;28;20231;-48
2023/06/20 04:26:13;;;;;;;19.67;12.90;;;;;;;20.62;64.00;100251.97;4230470;28;21009;-52
2023/06/20 04:28:40;;;;;;;16.00;10.77;;;;;;;20.70;63.59;100249.00;4231577;28;20255;-47
2023/06/20 04:31:06;;;;;;;16.50;11.47;;;;;;;20.92;63.06;100259.69;4230444;28;21107;-80
2023/06/20 04:33:33;;;;;;;16.17;12.03;;;;;;;21.21;61.42;100258.25;4233995;28;22309;-71
2023/06/20 04:36:00;;;;;;;16.63;10.97;;;;;;;21.45;61.89;100255.75;4237700;28;25122;-72
2023/06/20 04:38:26;;;;;;;19.10;9.37;;;;;;;21.77;60.92;100262.06;4221671;28;20247;-75
2023/06/20 04:40:55;;;;;;;15.00;10.50;;;;;;;22.09;60.47;100258.38;4218752;28;20303;-74
2023/06/20 04:43:23;;;;;;;14.57;10.80;;;;;;;22.24;58.94;100264.34;4225797;28;20327;-72
2023/06/20 04:45:50;;;;;;;20.07;9.83;;;;;;;22.47;57.75;100263.69;4227788;28;25693;-76
2023/06/20 04:48:17;;;;;;;15.20;9.53;;;;;;;22.88;56.15;100260.41;4227301;28;20667;-72
2023/06/20 04:50:44;;;;;;;12.23;8.37;;;;;;;23.17;54.08;100261.53;4228498;28;20231;-75
2023/06/20 04:53:10;;;;;;;12.07;9.53;;;;;;;23.51;52.54;100263.75;4222139;28;20244;-75
2023/06/20 04:55:38;;;;;;;17.57;9.50;;;;;;;23.17;52.57;100257.88;4223353;28;20239;-72
2023/06/20 04:58:05;;;;;;;12.77;8.57;;;;;;;23.34;53.22;100261.69;4240803;28;20778;-44
2023/06/20 05:00:37;;;;;;;15.07;9.03;;;;;;;23.75;52.18;100261.84;4225497;28;20300;-52
2023/06/20 05:03:04;;;;;;;12.80;9.27;;;;;;;23.79;52.61;100259.44;4218402;28;20235;-47
2023/06/20 05:05:31;;;;;;;15.37;8.13;;;;;;;24.05;51.69;100261.78;4229502;28;20297;-49
2023/06/20 05:07:58;;;;;;;14.97;9.20;;;;;;;23.55;54.61;100262.19;4247107;28;20231;-48
2023/06/20 05:10:25;;;;;;;15.00;8.87;;;;;;;23.80;54.06;100267.50;4234031;28;21768;-49
2023/06/20 05:12:53;;;;;;;18.00;9.67;;;;;;;23.30;56.01;100268.75;4237591;28;20266;-52
2023/06/20 05:15:23;;;;;;;12.63;8.10;;;;;;;23.54;55.74;100266.03;4274288;28;21159;-50
2023/06/20 05:17:51;;;;;;;13.97;9.23;;;;;;;23.11;55.80;100259.69;4268382;28;20808;-75
2023/06/20 05:20:18;;;;;;;14.03;9.10;;;;;;;23.56;55.23;100266.63;4248212;28;20306;-80
2023/06/20 05:22:45;;;;;;;16.80;10.70;;;;;;;23.52;55.29;100270.97;4221683;28;20240;-74
2023/06/20 05:25:12;;;;;;;10.50;7.93;;;;;;;23.79;54.78;100271.38;4247814;28;20298;-79
2023/06/20 05:27:38;;;;;;;15.47;9.30;;;;;;;23.61;57.00;100276.97;4251829;28;20308;-74
2023/06/20 05:30:06;;;;;;;15.77;9.03;;;;;;;23.35;57.50;100268.03;4232976;28;21533;-77
2023/06/20 05:32:33;;;;;;;14.37;8.67;;;;;;;23.47;57.29;100268.06;4240696;28;21148;-71
2023/06/20 05:35:00;;;;;;;9.00;7.22;;;;;;;23.86;55.16;100269.31;4283723;28;20272;-67
2023/06/20 05:37:30;;;;;;;9.83;7.57;;;;;;;24.17;52.40;100266.44;4236614;28;21613;-70
2023/06/20 05:40:00;;;;;;;14.07;8.43;;;;;;;24.11;50.71;100262.72;4246011;28;20362;-70
2023/06/20 05:42:27;;;;;;;20.47;8.63;;;;;;;23.49;52.17;100260.38;4225475;28;20343;-69
2023/06/20 05:44:54;;;;;;;19.57;8.60;;;;;;;23.76;51.92;100265.44;4235771;28;20247;-70
2023/06/20 05:47:21;;;;;;;29.13;9.60;;;;;;;23.24;53.01;100264.16;4234126;28;21796;-51
2023/06/20 05:49:48;;;;;;;41.83;10.03;;;;;;;23.82;51.83;100267.28;4268106;28;20231;-49
2023/06/20 05:52:15;;;;;;;22.80;8.10;;;;;;;24.57;50.46;100275.88;4233603;28;20863;-50
2023/06/20 05:54:44;;;;;;;11.17;7.83;;;;;;;25.00;50.89;100269.03;4249521;28;20240;-47
2023/06/20 05:57:11;;;;;;;13.87;7.67;;;;;;;25.27;50.37;100269.22;4241529;28;20337;-49
2023/06/20 05:59:37;;;;;;;12.10;7.60;;;;;;;25.28;49.33;100272.84;4263885;28;20248;-48
2023/06/20 06:02:05;;;;;;;53.58;10.45;;;;;;;24.65;49.83;100269.97;4235638;28;20274;-61
2023/06/20 06:04:33;;;;;;;16.90;8.73;;;;;;;24.00;52.04;100271.88;4246589;28;20290;-46
2023/06/20 06:07:00;;;;;;;9.20;6.90;;;;;;;24.58;50.73;100274.78;4246335;28;20239;-49
2023/06/20 06:09:27;;;;;;;9.73;7.53;;;;;;;24.34;49.05;100275.69;4236405;28;20704;-64
2023/06/20 06:11:54;;;;;;;18.88;7.60;;;;;;;24.39;48.72;100271.34;4242134;28;21513;-68
2023/06/20 06:14:20;;;;;;;10.57;8.25;;;;;;;24.80;48.10;100275.84;4221468;28;20328;-69
2023/06/20 06:16:47;;;;;;;11.10;6.93;;;;;;;25.15;48.73;100271.22;4240131;28;20231;-66
2023/06/20 06:19:15;;;;;;;12.77;7.53;;;;;;;25.01;47.80;100265.16;4221332;28;20282;-67
2023/06/20 06:21:41;;;;;;;18.63;7.37;;;;;;;25.29;47.90;100269.84;4248739;28;24617;-65
2023/06/20 06:24:09;;;;;;;11.75;7.57;;;;;;;25.75;46.54;100269.81;4244773;28;20248;-65
2023/06/20 06:26:36;;;;;;;9.53;6.40;;;;;;;26.30;43.46;100278.41;4254722;28;21304;-65
2023/06/20 06:29:04;;;;;;;14.48;7.00;;;;;;;26.65;43.42;100263.31;4260034;28;20227;-67
2023/06/20 06:31:33;;;;;;;13.60;7.53;;;;;;;26.56;45.00;100267.66;4250481;28;21129;-68
2023/06/20 06:34:02;;;;;;;9.07;7.20;;;;;;;27.15;43.93;100275.25;4256528;28;20332;-67
2023/06/20 06:36:31;;;;;;;11.07;7.38;;;;;;;27.13;43.92;100265.53;4249194;28;20224;-68
2023/06/20 06:38:59;;;;;;;13.57;7.60;;;;;;;26.69;45.13;100275.56;4245097;28;20238;-64
2023/06/20 06:41:26;;;;;;;11.75;7.57;;;;;;;26.94;44.66;100274.22;4239725;28;22125;-65
2023/06/20 06:43:53;;;;;;;11.65;7.55;;;;;;;26.94;44.53;100276.16;4214315;28;20235;-69
2023/06/20 06:46:19;;;;;;;11.57;7.30;;;;;;;26.94;43.91;100281.72;4242918;28;20868;-65
2023/06/20 06:48:47;;;;;;;13.15;7.85;;;;;;;27.15;43.66;100278.03;4243878;28;20231;-66
2023/06/20 06:51:15;;;;;;;10.95;6.57;;;;;;;27.20;42.05;100274.47;4230623;28;20235;-69
2023/06/20 06:53:42;;;;;;;11.18;7.80;;;;;;;27.03;43.90;100281.00;4244958;28;20244;-65
2023/06/20 06:56:09;;;;;;;10.77;7.50;;;;;;;27.47;43.24;100284.78;4247953;28;20593;-65
2023/06/20 06:58:35;;;;;;;13.15;7.13;;;;;;;28.20;41.48;100280.63;4229020;28;20299;-66
2023/06/20 07:01:02;;;;;;;14.45;6.97;;;;;;;27.83;41.45;100287.84;4229713;28;20291;-67
2023/06/20 07:03:29;;;;;;;12.57;7.57;;;;;;;28.28;41.08;100288.47;4230580;28;20237;-67
2023/06/20 07:05:56;;;;;;;12.60;7.60;;;;;;;28.76;40.08;100286.47;4253397;28;22796;-67
2023/06/20 07:08:24;;;;;;;11.73;7.45;;;;;;;30.11;37.72;100278.28;4236777;28;21712;-69
2023/06/20 07:10:51;;;;;;;10.77;7.30;;;;;;;30.72;36.57;100273.63;4226529;28;20247;-67
2023/06/20 07:13:18;;;;;;;11.32;7.45;;;;;;;30.74;37.54;100276.97;4244544;28;20758;-64
2023/06/20 07:15:44;;;;;;;9.63;7.65;;;;;;;29.47;39.09;100278.56;4217499;28;20239;-66
2023/06/20 07:18:11;;;;;;;12.45;7.32;;;;;;;30.33;36.51;100275.16;4227440;28;21551;-68
2023/06/20 07:20:38;;;;;;;9.65;6.30;;;;;;;30.78;36.35;100275.28;4254250;28;20426;-65
2023/06/20 07:23:04;;;;;;;13.88;6.70;;;;;;;31.03;35.75;100270.66;4242225;28;21468;-66
2023/06/20 07:25:31;;;;;;;9.65;5.68;;;;;;;31.39;34.92;100281.63;4231614;28;20232;-69
2023/06/20 07:27:58;;;;;;;13.20;6.82;;;;;;;30.94;34.17;100279.66;4234577;28;20304;-62
2023/06/20 07:30:25;;;;;;;11.90;6.68;;;;;;;31.30;33.26;100281.41;4238962;28;22777;-65
2023/06/20 07:32:52;;;;;;;10.83;6.63;;;;;;;31.50;33.46;100276.81;4234274;28;20417;-43
2023/06/20 07:35:18;;;;;;;10.45;6.32;;;;;;;30.93;33.97;100288.34;4244216;28;20733;-71
2023/06/20 07:37:45;;;;;;;9.25;5.70;;;;;;;31.10;34.02;100291.63;4242971;28;20338;-69
2023/06/20 07:40:12;;;;;;;9.50;5.80;;;;;;;31.08;34.36;100288.25;4217017;28;22381;-69
2023/06/20 07:42:38;;;;;;;8.52;5.80;;;;;;;31.15;34.65;100290.75;4213858;28;22056;-73
2023/06/20 07:45:05;;;;;;;10.50;5.65;;;;;;;31.57;33.99;100294.91;4245322;28;20227;-69
2023/06/20 07:47:32;;;;;;;7.05;5.90;;;;;;;30.55;35.26;100286.00;4218208;28;20240;-70
2023/06/20 07:49:59;;;;;;;14.05;6.65;;;;;;;30.70;36.41;100296.28;4231220;28;20245;-70
2023/06/20 07:52:27;;;;;;;8.77;6.07;;;;;;;30.51;35.16;100285.72;4229713;28;20237;-68
2023/06/20 07:54:55;;;;;;;7.50;5.90;;;;;;;31.22;34.30;100284.84;4228881;28;20235;-69
2023/06/20 07:57:24;;;;;;;11.80;5.63;;;;;;;31.25;32.27;100290.69;4222600;28;21827;-68
2023/06/20 07:59:51;;;;;;;11.43;7.30;;;;;;;31.42;33.81;100295.03;4250998;28;20232;-69
2023/06/20 08:02:18;;;;;;;9.60;5.82;;;;;;;31.44;33.78;100292.78;4229453;28;20237;-68
2023/06/20 08:04:44;;;;;;;11.00;6.15;;;;;;;30.16;35.51;100290.28;4242199;28;20223;-71
2023/06/20 08:07:11;;;;;;;12.32;5.88;;;;;;;30.46;35.30;100296.06;4239796;28;20234;-66
2023/06/20 08:09:38;;;;;;;9.57;5.55;;;;;;;30.75;34.90;100293.44;4259201;28;20297;-70
2023/06/20 08:12:05;;;;;;;9.57;6.05;;;;;;;31.05;33.68;100299.16;4245391;28;20239;-68
2023/06/20 08:14:32;;;;;;;6.20;4.57;;;;;;;31.95;33.15;100287.91;4238082;28;21137;-66
2023/06/20 08:16:59;;;;;;;7.88;4.68;;;;;;;32.32;31.71;100289.22;4269530;28;20239;-66
2023/06/20 08:19:25;;;;;;;8.95;4.82;;;;;;;32.49;32.12;100297.16;4262424;28;20242;-66
2023/06/20 08:21:53;;;;;;;6.65;5.50;;;;;;;32.65;31.29;100298.63;4252332;28;21767;-67
2023/06/20 08:24:19;;;;;;;7.45;5.78;;;;;;;31.83;31.66;100293.88;4250953;28;21138;-68
2023/06/20 08:26:46;;;;;;;8.32;5.70;;;;;;;31.34;31.88;100302.09;4276711;28;20659;-68
2023/06/20 08:29:13;;;;;;;7.47;6.00;;;;;;;30.50;33.38;100302.75;4258216;28;20239;-68
2023/06/20 08:31:40;;;;;;;7.65;5.22;;;;;;;30.72;33.33;100305.22;4244740;28;20247;-73
2023/06/20 08:34:07;;;;;;;6.82;4.93;;;;;;;30.18;33.13;100298.34;4245092;28;20228;-71
2023/06/20 08:36:33;;;;;;;10.45;4.93;;;;;;;30.60;33.54;100302.75;4248438;28;20626;-71
2023/06/20 08:39:01;;;;;;;7.55;4.80;;;;;;;30.65;33.04;100302.72;4278932;28;20652;-71
2023/06/20 08:41:28;;;;;;;9.63;4.90;;;;;;;31.24;31.89;100294.59;4245906;28;20245;-68
2023/06/20 08:43:55;;;;;;;9.45;5.05;;;;;;;31.49;32.20;100308.72;4250151;28;20264;-68
2023/06/20 08:46:24;;;;;;;8.10;5.40;;;;;;;31.42;31.57;100303.44;4274630;28;20658;-67
2023/06/20 08:48:51;;;;;;;6.80;5.18;;;;;;;31.79;31.23;100307.63;4261755;28;20239;-69
2023/06/20 08:51:21;;;;;;;7.82;5.63;;;;;;;31.12;31.07;100308.94;4245579;28;20227;-68
2023/06/20 08:53:49;;;;;;;7.93;5.85;;;;;;;30.19;32.77;100302.81;4229234;28;20243;-69
2023/06/20 08:56:17;;;;;;;7.30;4.70;;;;;;;30.74;32.51;100307.72;4228084;28;21202;-68
2023/06/20 08:58:44;;;;;;;9.27;5.93;;;;;;;30.18;33.49;100310.38;4236140;28;20239;-68
2023/06/20 09:01:11;;;;;;;9.05;6.00;;;;;;;29.85;33.34;100309.00;4257466;28;20259;-70
2023/06/20 09:03:38;;;;;;;10.77;5.97;;;;;;;30.02;33.96;100300.34;4235320;28;20323;-71
2023/06/20 09:06:06;;;;;;;9.15;5.65;;;;;;;30.04;33.70;100306.50;4240532;28;20261;-69
2023/06/20 09:08:44;;;;;;;10.65;6.75;;;;;;;29.11;35.52;100303.59;4244981;28;20282;-69
2023/06/20 09:11:11;;;;;;;7.97;6.10;;;;;;;29.13;35.31;100301.38;4228995;28;20385;-72
2023/06/20 09:13:40;;;;;;;11.23;6.63;;;;;;;29.58;36.54;100303.69;4242844;28;20232;-55
2023/06/20 09:16:08;;;;;;;14.73;6.90;;;;;;;29.61;35.45;100303.16;4273865;28;20871;-69
2023/06/20 09:18:35;;;;;;;17.30;6.50;;;;;;;29.80;34.59;100287.50;4253277;28;20762;-70
2023/06/20 09:21:03;;;;;;;12.98;6.45;;;;;;;30.06;33.88;100298.69;4245959;28;20464;-66
2023/06/20 09:23:31;;;;;;;18.25;6.70;;;;;;;30.39;34.19;100295.53;4270081;28;20543;-68
2023/06/20 09:26:18;;;;;;;9.55;6.13;;;;;;;30.17;34.34;100294.75;4247665;28;21118;-64
2023/06/20 09:28:45;;;;;;;11.02;6.80;;;;;;;30.22;34.26;100282.72;4242127;28;22908;-68
2023/06/20 09:31:13;;;;;;;11.07;7.53;;;;;;;29.75;35.06;100290.31;4302795;28;20235;-72
2023/06/20 09:33:41;;;;;;;13.38;7.00;;;;;;;29.31;35.82;100304.75;4203902;28;20230;-69
2023/06/20 09:36:14;;;;;;;9.75;6.18;;;;;;;29.93;35.92;100293.66;4235962;28;20350;-49
2023/06/20 09:38:45;;;;;;;14.85;6.93;;;;;;;30.47;34.89;100294.94;4252160;28;20468;-69
2023/06/20 09:41:15;;;;;;;11.57;6.95;;;;;;;30.27;33.27;100285.50;4226534;28;20862;-73
2023/06/20 09:43:43;;;;;;;11.13;7.05;;;;;;;29.30;36.35;100294.72;4235007;28;20461;-72
2023/06/20 09:46:10;;;;;;;9.90;6.32;;;;;;;29.47;36.11;100286.13;4217914;28;20388;-70
2023/06/20 09:48:38;;;;;;;12.02;7.13;;;;;;;29.89;35.07;100287.75;4239580;28;21159;-70
2023/06/20 09:51:08;;;;;;;8.57;6.50;;;;;;;29.42;35.39;100291.69;4233990;28;20235;-69
2023/06/20 09:53:45;;;;;;;9.60;6.38;;;;;;;29.52;35.49;100291.69;4223081;28;21315;-69
2023/06/20 09:56:12;;;;;;;15.63;7.60;;;;;;;29.36;34.92;100297.25;4231607;28;20282;-70
2023/06/20 09:58:42;;;;;;;11.70;6.65;;;;;;;29.39;34.83;100291.13;4228539;28;20235;-71
2023/06/20 10:01:11;;;;;;;11.75;6.53;;;;;;;28.48;38.01;100301.66;4229960;28;20231;-72
2023/06/20 10:03:37;;;;;;;10.75;6.05;;;;;;;28.94;36.32;100301.03;4241039;28;21627;-71
2023/06/20 10:06:04;;;;;;;10.93;7.35;;;;;;;29.05;36.15;100294.38;4221494;28;20611;-71
2023/06/20 10:08:31;;;;;;;10.43;6.32;;;;;;;29.22;36.08;100291.38;4234830;28;25543;-70
2023/06/20 10:10:58;;;;;;;12.00;6.93;;;;;;;29.34;36.93;100287.50;4226113;28;20238;-70
2023/06/20 10:13:25;;;;;;;9.88;7.00;;;;;;;29.37;36.08;100282.19;4233995;28;20656;-70
2023/06/20 10:15:52;;;;;;;10.38;6.60;;;;;;;29.44;35.46;100281.94;4251996;28;20285;-69
2023/06/20 10:18:35;;;;;;;7.25;5.78;;;;;;;29.63;35.85;100284.16;4220761;28;20662;-70
2023/06/20 10:21:05;;;;;;;13.55;6.97;;;;;;;29.57;35.85;100283.34;4242735;28;20375;-71
2023/06/20 10:23:35;;;;;;;6.38;5.45;;;;;;;29.32;35.66;100282.19;4236677;28;20228;-72
2023/06/20 10:26:07;;;;;;;9.23;5.82;;;;;;;29.51;35.38;100285.28;4225690;28;20233;-74
2023/06/20 10:28:38;;;;;;;9.63;6.53;;;;;;;28.89;36.56;100290.72;4199575;28;20235;-70
2023/06/20 10:31:05;;;;;;;9.20;6.18;;;;;;;29.17;36.18;100287.72;4217389;28;21203;-74
2023/06/20 10:33:43;;;;;;;10.45;6.85;;;;;;;28.79;36.42;100279.53;4215374;28;21746;-69
2023/06/20 10:36:12;;;;;;;12.85;6.57;;;;;;;28.43;37.78;100285.78;4218444;28;20425;-70
2023/06/20 10:39:02;;;;;;;8.63;5.85;;;;;;;29.28;35.68;100280.22;4218096;28;20886;-70
2023/06/20 10:41:29;;;;;;;10.32;6.47;;;;;;;28.82;36.59;100275.34;4224044;28;20410;-70
2023/06/20 10:44:03;;;;;;;7.03;6.20;;;;;;;29.13;36.42;100281.00;4220151;28;20371;-69
2023/06/20 10:46:36;;;;;;;9.70;6.75;;;;;;;29.31;36.92;100286.09;4237725;28;20232;-75
2023/06/20 10:49:03;;;;;;;7.30;6.28;;;;;;;29.65;37.04;100284.72;4231981;28;20230;-69
2023/06/20 10:51:30;;;;;;;8.38;6.32;;;;;;;29.79;35.62;100280.25;4210001;28;20240;-69
2023/06/20 10:54:10;;;;;;;14.38;6.45;;;;;;;29.06;36.69;100273.75;4219740;28;23381;-73
2023/06/20 10:56:37;;;;;;;9.05;6.15;;;;;;;29.68;34.91;100273.03;4233413;28;26455;-70
2023/06/20 10:59:11;;;;;;;10.00;6.35;;;;;;;29.85;36.33;100270.75;4243530;28;20838;-73
2023/06/20 11:01:38;;;;;;;14.98;6.97;;;;;;;29.50;35.83;100271.59;4237925;28;20368;-71
2023/06/20 11:04:13;;;;;;;10.63;6.82;;;;;;;29.51;35.69;100270.50;4234704;28;21070;-71
2023/06/20 11:06:40;;;;;;;7.97;6.10;;;;;;;29.62;34.88;100265.75;4254010;28;20370;-70
2023/06/20 11:09:21;;;;;;;9.60;6.10;;;;;;;29.84;34.81;100271.88;4221708;28;22088;-71
2023/06/20 11:11:48;;;;;;;10.20;6.32;;;;;;;30.17;34.66;100272.41;4227615;28;20231;-70
2023/06/20 11:14:18;;;;;;;9.82;5.65;;;;;;;29.73;35.38;100271.03;4225197;28;20232;-71
2023/06/20 11:16:46;;;;;;;9.77;6.20;;;;;;;29.56;34.69;100268.53;4226549;28;20300;-73
2023/06/20 11:19:14;;;;;;;12.70;6.47;;;;;;;29.14;35.53;100271.53;4230206;28;20278;-70
2023/06/20 11:22:01;;;;;;;14.35;6.30;;;;;;;29.05;36.17;100277.66;4226881;28;20223;-71
2023/06/20 11:24:29;;;;;;;10.80;6.45;;;;;;;29.71;35.36;100267.72;4237067;28;20242;-72